Time;durP1;ratioP1;P1;durP2;ratioP2;P2;SDS_P1;SDS_P2;PMS_P1;PMS_P2;Temp;Humidity;BMP_temperature;BMP_pressure;BME280_temperature;BME280_humidity;BME280_pressure;Samples;Min_cycle;Max_cycle;Signal;HPM_P1;HPM_P2
2024/01/27 00:01:51;;;;;;;7.55;4.90;;;3.30;67.40;;;;;;5055724;28;20055;-72
2024/01/27 00:04:17;;;;;;;14.23;8.38;;;3.20;68.60;;;;;;5089515;28;20035;-74
2024/01/27 00:06:43;;;;;;;17.95;8.70;;;3.20;68.50;;;;;;5089394;28;20396;-74
2024/01/27 00:09:09;;;;;;;17.45;6.22;;;3.20;68.60;;;;;;5091669;28;20374;-72
2024/01/27 00:11:35;;;;;;;14.02;7.28;;;3.20;68.60;;;;;;5090135;28;20044;-71
2024/01/27 00:14:02;;;;;;;;;;;3.20;68.70;;;;;;5090410;28;20464;-72
2024/01/27 00:16:29;;;;;;;11.97;7.13;;;3.10;69.00;;;;;;5091842;28;19980;-71
2024/01/27 00:18:55;;;;;;;12.73;6.60;;;3.10;69.30;;;;;;5090853;28;20595;-71
2024/01/27 00:21:21;;;;;;;11.00;6.78;;;3.10;69.30;;;;;;5089582;28;20109;-72
2024/01/27 00:23:47;;;;;;;8.68;5.88;;;3.00;69.20;;;;;;5091482;28;20036;-72
2024/01/27 00:26:14;;;;;;;12.60;6.70;;;3.00;69.30;;;;;;5091448;28;20052;-72
2024/01/27 00:28:40;;;;;;;12.52;9.18;;;2.90;69.30;;;;;;5091721;28;20028;-74
2024/01/27 00:31:06;;;;;;;16.25;7.90;;;2.80;69.30;;;;;;5072900;28;20047;-74
2024/01/27 00:33:32;;;;;;;13.88;6.53;;;2.80;69.30;;;;;;5073824;28;20024;-71
2024/01/27 00:35:58;;;;;;;11.32;7.00;;;2.80;69.70;;;;;;5090247;28;20044;-74
2024/01/27 00:38:24;;;;;;;9.95;5.97;;;2.70;69.70;;;;;;5090281;28;20550;-73
2024/01/27 00:40:50;;;;;;;9.10;6.07;;;2.70;69.70;;;;;;5090649;28;20075;-72
2024/01/27 00:43:16;;;;;;;15.77;9.48;;;2.70;69.70;;;;;;5090064;28;20077;-73
2024/01/27 00:45:43;;;;;;;9.23;6.68;;;2.60;70.30;;;;;;5090266;28;20040;-72
2024/01/27 00:48:09;;;;;;;8.63;5.47;;;2.60;70.30;;;;;;5090495;28;20027;-71
2024/01/27 00:50:35;;;;;;;10.00;4.35;;;2.60;70.20;;;;;;5089918;28;20089;-73
2024/01/27 00:53:01;;;;;;;7.20;3.85;;;2.50;70.40;;;;;;5090695;28;20040;-74
2024/01/27 00:55:27;;;;;;;7.68;5.00;;;2.50;70.10;;;;;;5091961;28;20079;-71
2024/01/27 00:57:53;;;;;;;15.00;5.78;;;2.50;70.20;;;;;;5094305;28;20066;-72
2024/01/27 01:00:20;;;;;;;11.60;7.38;;;2.50;70.30;;;;;;5094003;28;20040;-74
2024/01/27 01:02:47;;;;;;;9.95;5.13;;;2.50;70.30;;;;;;5094592;28;20077;-73
2024/01/27 01:05:13;;;;;;;11.85;6.10;;;2.50;70.10;;;;;;5095491;28;20424;-73
2024/01/27 01:07:40;;;;;;;16.92;6.88;;;2.50;70.30;;;;;;5077409;28;20038;-74
2024/01/27 01:10:07;;;;;;;14.15;8.05;;;2.40;70.30;;;;;;5093691;28;20508;-72
2024/01/27 01:12:33;;;;;;;14.63;5.85;;;2.30;70.50;;;;;;5095258;28;20035;-74
2024/01/27 01:14:59;;;;;;;10.50;7.90;;;2.40;70.60;;;;;;5093979;28;20035;-72
2024/01/27 01:17:25;;;;;;;13.73;5.00;;;2.40;70.40;;;;;;5095041;28;20081;-73
2024/01/27 01:19:51;;;;;;;8.48;4.95;;;2.40;70.80;;;;;;5094089;28;20044;-73
2024/01/27 01:22:17;;;;;;;8.40;4.68;;;2.30;71.10;;;;;;5093580;28;20051;-74
2024/01/27 01:24:43;;;;;;;16.58;6.90;;;2.30;71.10;;;;;;5077316;28;20130;-71
2024/01/27 01:27:09;;;;;;;10.43;6.18;;;2.40;71.50;;;;;;5095436;28;20044;-71
2024/01/27 01:29:35;;;;;;;10.40;6.05;;;2.40;71.50;;;;;;5094099;28;20020;-74
2024/01/27 01:32:02;;;;;;;13.00;4.75;;;2.40;71.50;;;;;;5094897;28;20122;-74
2024/01/27 01:34:29;;;;;;;8.73;4.72;;;2.40;71.60;;;;;;5095050;28;20519;-72
2024/01/27 01:36:57;;;;;;;10.85;6.28;;;2.30;71.30;;;;;;5076835;28;20039;-72
2024/01/27 01:39:23;;;;;;;8.57;4.97;;;2.30;72.00;;;;;;5093435;28;20032;-72
2024/01/27 01:41:49;;;;;;;7.90;4.10;;;2.30;71.70;;;;;;5092338;28;20058;-73
2024/01/27 01:44:15;;;;;;;5.40;3.53;;;2.30;71.60;;;;;;5093103;28;20028;-74
2024/01/27 01:46:42;;;;;;;13.15;7.65;;;2.30;71.50;;;;;;5093560;28;20032;-72
2024/01/27 01:49:08;;;;;;;7.32;4.10;;;2.30;71.60;;;;;;5093262;28;20149;-73
2024/01/27 01:51:34;;;;;;;8.32;3.70;;;2.30;71.60;;;;;;5094190;28;20044;-73
2024/01/27 01:54:01;;;;;;;12.63;5.75;;;2.30;72.10;;;;;;5093442;28;20028;-74
2024/01/27 01:56:27;;;;;;;12.73;5.78;;;2.30;71.90;;;;;;5093672;28;20044;-71
2024/01/27 01:58:55;;;;;;;12.13;4.65;;;2.40;72.10;;;;;;5093454;28;20397;-73
2024/01/27 02:01:21;;;;;;;6.70;3.63;;;2.40;72.30;;;;;;5092818;28;20068;-74
2024/01/27 02:04:06;;;;;;;6.05;3.22;;;2.40;72.60;;;;;;5094703;28;20027;-72
2024/01/27 02:06:32;;;;;;;7.88;2.97;;;2.50;73.50;;;;;;5094297;28;20377;-74
2024/01/27 02:08:58;;;;;;;6.53;3.97;;;2.50;73.50;;;;;;5093233;28;20032;-73
2024/01/27 02:11:24;;;;;;;5.85;3.35;;;2.50;73.40;;;;;;5092511;28;20539;-72
2024/01/27 02:13:50;;;;;;;4.97;3.42;;;2.60;73.70;;;;;;5093452;28;20028;-71
2024/01/27 02:16:17;;;;;;;5.63;2.40;;;2.60;74.00;;;;;;5094407;28;20097;-74
2024/01/27 02:18:44;;;;;;;13.40;4.28;;;2.70;74.70;;;;;;5094308;28;20024;-72
2024/01/27 02:21:10;;;;;;;7.05;3.17;;;2.70;74.60;;;;;;5092162;28;20115;-72
2024/01/27 02:23:36;;;;;;;3.70;1.65;;;2.80;76.70;;;;;;5094175;28;20035;-73
2024/01/27 02:26:02;;;;;;;3.47;1.73;;;3.10;76.60;;;;;;5092813;28;20048;-74
2024/01/27 02:28:31;;;;;;;1.58;1.15;;;3.40;75.80;;;;;;5092844;28;20370;-72
2024/01/27 02:30:59;;;;;;;3.05;1.65;;;3.60;74.60;;;;;;5093706;28;20351;-72
2024/01/27 02:33:26;;;;;;;1.25;0.85;;;3.80;73.40;;;;;;5092925;28;20024;-72
2024/01/27 02:35:52;;;;;;;1.00;0.60;;;4.00;72.40;;;;;;5092793;28;20039;-74
2024/01/27 02:38:18;;;;;;;6.18;1.17;;;4.10;72.70;;;;;;5092893;28;20032;-73
2024/01/27 02:40:44;;;;;;;1.55;0.82;;;4.10;72.20;;;;;;5093447;28;20036;-71
2024/01/27 02:43:10;;;;;;;1.40;0.80;;;4.10;72.70;;;;;;5092788;28;20028;-74
2024/01/27 02:45:36;;;;;;;2.17;1.45;;;4.20;71.50;;;;;;5092493;28;20055;-73
2024/01/27 02:48:03;;;;;;;2.55;1.15;;;4.20;71.20;;;;;;5093669;28;20050;-71
2024/01/27 02:50:29;;;;;;;1.50;0.82;;;4.20;70.90;;;;;;5091769;28;20427;-74
2024/01/27 02:52:55;;;;;;;3.67;2.75;;;4.20;70.80;;;;;;5093776;28;20503;-73
2024/01/27 02:55:21;;;;;;;5.03;1.60;;;4.20;70.70;;;;;;5092862;28;20040;-72
2024/01/27 02:57:47;;;;;;;4.43;2.10;;;4.20;70.90;;;;;;5093037;28;20069;-74
2024/01/27 03:00:13;;;;;;;7.85;2.92;;;4.20;71.20;;;;;;5091605;28;20056;-74
2024/01/27 03:02:39;;;;;;;4.03;1.85;;;4.10;70.70;;;;;;5093851;28;20035;-72
2024/01/27 03:05:06;;;;;;;5.30;2.13;;;4.20;71.40;;;;;;5092102;28;20040;-73
2024/01/27 03:07:32;;;;;;;6.55;2.92;;;4.20;70.90;;;;;;5075317;28;20043;-73
2024/01/27 03:09:58;;;;;;;24.00;3.92;;;4.30;71.60;;;;;;5091914;28;20507;-74
2024/01/27 03:12:24;;;;;;;5.10;3.78;;;4.30;71.50;;;;;;5091726;28;20082;-72
2024/01/27 03:14:50;;;;;;;12.30;4.85;;;4.20;71.40;;;;;;5092147;28;20036;-71
2024/01/27 03:17:16;;;;;;;;;;;4.20;71.60;;;;;;5093428;28;20071;-72
2024/01/27 03:19:42;;;;;;;9.13;3.88;;;4.20;71.70;;;;;;5093045;28;20365;-73
2024/01/27 03:22:08;;;;;;;12.40;5.75;;;4.10;71.60;;;;;;5091306;28;20044;-73
2024/01/27 03:24:35;;;;;;;6.20;2.53;;;4.10;71.80;;;;;;5092021;28;20039;-72
2024/01/27 03:27:01;;;;;;;7.63;2.20;;;4.10;71.40;;;;;;5092882;28;20119;-73
2024/01/27 03:29:28;;;;;;;3.83;2.60;;;4.00;71.80;;;;;;5091546;28;20039;-73
2024/01/27 03:31:54;;;;;;;4.97;3.28;;;4.10;71.90;;;;;;5092427;28;20370;-73
2024/01/27 03:34:24;;;;;;;17.58;5.47;;;4.00;71.60;;;;;;5091321;28;20020;-73
2024/01/27 03:36:50;;;;;;;8.70;3.50;;;4.00;71.60;;;;;;5092037;28;20048;-72
2024/01/27 03:39:17;;;;;;;3.03;2.15;;;4.00;71.00;;;;;;5090897;28;20488;-73
2024/01/27 03:41:43;;;;;;;5.53;3.67;;;3.90;71.50;;;;;;5091418;28;20055;-74
2024/01/27 03:44:09;;;;;;;3.40;2.22;;;3.90;71.60;;;;;;5091256;28;20103;-72
2024/01/27 03:46:35;;;;;;;3.75;2.17;;;3.90;71.70;;;;;;5092854;28;20048;-72
2024/01/27 03:49:01;;;;;;;4.05;2.17;;;3.90;71.70;;;;;;5090912;28;20032;-74
2024/01/27 03:51:27;;;;;;;7.38;3.63;;;3.80;71.50;;;;;;5073207;28;20051;-73
2024/01/27 03:53:53;;;;;;;8.02;3.70;;;3.70;71.50;;;;;;5090837;28;20110;-72
2024/01/27 03:56:19;;;;;;;3.13;1.90;;;3.70;71.60;;;;;;5092389;28;20058;-72
2024/01/27 03:58:45;;;;;;;3.92;2.35;;;3.60;71.70;;;;;;5092144;28;20031;-73
2024/01/27 04:01:11;;;;;;;5.90;2.78;;;3.60;71.70;;;;;;5091986;28;20086;-72
2024/01/27 04:03:37;;;;;;;5.35;1.90;;;3.50;71.60;;;;;;5091357;28;20119;-71
2024/01/27 04:06:03;;;;;;;3.60;1.92;;;3.40;71.60;;;;;;5090682;28;20036;-73
2024/01/27 04:08:30;;;;;;;;;;;3.30;71.20;;;;;;5092598;28;20035;-73
2024/01/27 04:10:56;;;;;;;8.18;3.38;;;3.20;71.60;;;;;;5089755;28;19969;-73
2024/01/27 04:13:22;;;;;;;3.30;1.95;;;3.20;71.70;;;;;;5092277;28;20028;-72
2024/01/27 04:15:51;;;;;;;4.72;2.65;;;3.20;71.70;;;;;;5090895;28;20101;-72
2024/01/27 04:18:17;;;;;;;4.60;2.55;;;3.10;71.80;;;;;;5090331;28;20127;-72
2024/01/27 04:20:43;;;;;;;4.43;2.33;;;3.00;71.80;;;;;;5090706;28;20182;-74
2024/01/27 04:23:09;;;;;;;;;;;3.00;71.90;;;;;;5090872;28;20047;-73
2024/01/27 04:25:35;;;;;;;5.57;2.97;;;2.90;72.30;;;;;;5089878;28;20404;-71
2024/01/27 04:28:01;;;;;;;2.45;1.70;;;2.80;71.40;;;;;;5091193;28;20032;-73
2024/01/27 04:30:27;;;;;;;8.43;3.75;;;2.50;71.60;;;;;;5072462;28;20488;-73
2024/01/27 04:32:53;;;;;;;5.80;3.67;;;2.40;72.70;;;;;;5090582;28;20024;-73
2024/01/27 04:35:19;;;;;;;8.52;3.30;;;2.30;73.20;;;;;;5089969;28;20063;-73
2024/01/27 04:37:46;;;;;;;6.68;3.88;;;2.40;73.00;;;;;;5091394;28;20040;-72
2024/01/27 04:40:12;;;;;;;9.48;3.90;;;2.30;73.10;;;;;;5089331;28;20063;-72
2024/01/27 04:42:39;;;;;;;8.43;4.60;;;2.20;73.80;;;;;;5090246;28;20056;-71
2024/01/27 04:45:06;;;;;;;13.38;5.88;;;2.10;74.40;;;;;;5091486;28;20247;-73
2024/01/27 04:47:32;;;;;;;15.38;5.25;;;2.10;74.50;;;;;;5090405;28;20056;-74
2024/01/27 04:49:58;;;;;;;7.55;3.55;;;2.10;74.80;;;;;;5091081;28;20036;-72
2024/01/27 04:52:25;;;;;;;5.70;3.75;;;2.10;75.00;;;;;;5089331;28;20032;-71
2024/01/27 04:54:52;;;;;;;7.95;3.35;;;2.10;75.70;;;;;;5089744;28;20036;-71
2024/01/27 04:57:18;;;;;;;;;;;2.10;75.10;;;;;;5073361;28;20024;-73
2024/01/27 04:59:44;;;;;;;6.50;4.35;;;2.10;74.60;;;;;;5089768;28;19956;-73
2024/01/27 05:02:11;;;;;;;5.93;2.08;;;2.00;74.10;;;;;;5090899;28;20217;-71
2024/01/27 05:04:38;;;;;;;8.30;4.40;;;2.00;74.20;;;;;;5089961;28;20039;-72
2024/01/27 05:07:04;;;;;;;11.48;4.57;;;2.00;74.30;;;;;;5089590;28;20598;-73
2024/01/27 05:09:30;;;;;;;5.95;3.50;;;1.90;74.50;;;;;;5089524;28;20029;-73
2024/01/27 05:11:57;;;;;;;13.23;5.40;;;2.00;75.60;;;;;;5089078;28;20028;-71
2024/01/27 05:14:23;;;;;;;7.82;2.97;;;2.00;76.30;;;;;;5089804;28;20456;-72
2024/01/27 05:16:49;;;;;;;7.28;4.13;;;1.90;76.70;;;;;;5090882;28;20047;-73
2024/01/27 05:19:16;;;;;;;12.63;3.63;;;2.00;76.20;;;;;;5089761;28;20028;-72
2024/01/27 05:21:43;;;;;;;5.13;3.78;;;1.90;75.70;;;;;;5090172;28;20056;-72
2024/01/27 05:24:09;;;;;;;5.68;3.08;;;1.90;75.50;;;;;;5090869;28;20029;-72
2024/01/27 05:26:35;;;;;;;6.75;3.08;;;1.90;75.40;;;;;;5090959;28;20051;-74
2024/01/27 05:29:01;;;;;;;;;;;1.90;74.60;;;;;;5072866;28;20420;-74
2024/01/27 05:31:27;;;;;;;7.15;2.72;;;1.90;75.40;;;;;;5090187;28;19932;-72
2024/01/27 05:33:53;;;;;;;7.60;3.10;;;1.80;76.10;;;;;;5089511;28;20030;-72
2024/01/27 05:36:19;;;;;;;7.22;3.70;;;1.80;76.00;;;;;;5090928;28;20509;-73
2024/01/27 05:38:45;;;;;;;12.75;4.53;;;1.80;75.90;;;;;;5090929;28;20411;-72
2024/01/27 05:41:11;;;;;;;15.23;3.95;;;1.90;75.90;;;;;;5090176;28;20039;-71
2024/01/27 05:43:37;;;;;;;5.82;2.75;;;1.80;76.10;;;;;;5092593;28;20036;-74
2024/01/27 05:46:04;;;;;;;8.52;4.07;;;1.80;75.90;;;;;;5092809;28;20144;-73
2024/01/27 05:48:30;;;;;;;6.57;3.58;;;1.80;75.60;;;;;;5094252;28;20028;-71
2024/01/27 05:50:58;;;;;;;5.70;3.42;;;1.80;75.20;;;;;;5093843;28;20084;-73
2024/01/27 05:53:25;;;;;;;7.53;3.58;;;1.70;75.00;;;;;;5093039;28;20047;-74
2024/01/27 05:55:53;;;;;;;6.88;2.80;;;1.70;75.00;;;;;;5092814;28;20093;-72
2024/01/27 05:58:22;;;;;;;10.55;3.80;;;1.70;75.00;;;;;;5092820;28;20028;-74
2024/01/27 06:00:49;;;;;;;7.78;4.07;;;1.70;75.00;;;;;;5091985;28;20465;-73
2024/01/27 06:03:16;;;;;;;4.05;2.53;;;1.70;74.70;;;;;;5093119;28;20028;-74
2024/01/27 06:05:43;;;;;;;4.40;3.17;;;1.70;74.80;;;;;;5092189;28;20036;-72
2024/01/27 06:08:09;;;;;;;9.18;6.05;;;1.60;74.70;;;;;;5094083;28;20051;-72
2024/01/27 06:13:19;;;;;;;6.55;3.22;;;1.60;73.80;;;;;;5092942;28;20117;-72
2024/01/27 06:15:45;;;;;;;8.43;4.05;;;1.60;74.20;;;;;;5093828;28;20044;-73
2024/01/27 06:18:11;;;;;;;5.93;3.47;;;1.50;73.80;;;;;;5092269;28;20382;-74
2024/01/27 06:20:40;;;;;;;4.03;2.72;;;1.40;74.00;;;;;;5092682;28;20236;-72
2024/01/27 06:23:06;;;;;;;8.43;3.70;;;1.40;74.10;;;;;;5092724;28;20024;-74
2024/01/27 06:25:33;;;;;;;13.27;3.78;;;1.40;74.10;;;;;;5092384;28;20032;-74
2024/01/27 06:27:59;;;;;;;9.20;5.40;;;1.40;74.40;;;;;;5075208;28;20043;-72
2024/01/27 06:30:25;;;;;;;20.80;4.90;;;1.40;74.40;;;;;;5093246;28;20066;-72
2024/01/27 06:32:51;;;;;;;12.30;7.35;;;1.40;74.30;;;;;;5093418;28;20516;-73
2024/01/27 06:35:17;;;;;;;10.50;5.72;;;1.40;74.10;;;;;;5092023;28;20066;-72
2024/01/27 06:37:43;;;;;;;18.85;9.48;;;1.40;74.00;;;;;;5075196;28;20055;-72
2024/01/27 06:40:10;;;;;;;14.90;7.78;;;1.40;73.90;;;;;;5091763;28;20036;-73
2024/01/27 06:42:36;;;;;;;14.50;6.93;;;1.40;73.30;;;;;;5075299;28;20400;-73
2024/01/27 06:45:03;;;;;;;11.57;6.40;;;1.40;74.10;;;;;;5091849;28;20036;-74
2024/01/27 06:47:29;;;;;;;7.10;4.25;;;1.40;73.30;;;;;;5074568;28;20062;-73
2024/01/27 06:49:56;;;;;;;13.20;6.70;;;1.40;73.30;;;;;;5091728;28;20048;-74
2024/01/27 06:52:22;;;;;;;4.47;3.03;;;1.40;73.80;;;;;;5092642;28;20051;-74
2024/01/27 06:54:48;;;;;;;12.30;6.32;;;1.40;73.60;;;;;;5091044;28;20039;-74
2024/01/27 06:57:33;;;;;;;9.85;7.93;;;1.40;73.50;;;;;;5091610;28;20036;-71
2024/01/27 06:59:59;;;;;;;8.02;4.93;;;1.40;73.20;;;;;;5092793;28;20047;-73
2024/01/27 07:02:26;;;;;;;8.73;5.50;;;1.30;73.30;;;;;;5091166;28;20029;-74
2024/01/27 07:04:53;;;;;;;22.58;7.47;;;1.30;73.10;;;;;;5092818;28;20109;-73
2024/01/27 07:07:25;;;;;;;10.23;6.05;;;1.30;72.60;;;;;;5074437;28;20039;-72
2024/01/27 07:09:54;;;;;;;13.07;6.43;;;1.40;73.00;;;;;;5074605;28;20036;-73
2024/01/27 07:12:20;;;;;;;16.00;9.57;;;1.40;73.20;;;;;;5090774;28;20461;-72
2024/01/27 07:14:46;;;;;;;19.98;9.88;;;1.30;73.40;;;;;;5092781;28;20040;-74
2024/01/27 07:17:13;;;;;;;20.08;10.70;;;1.40;73.20;;;;;;5092314;28;20401;-72
2024/01/27 07:19:39;;;;;;;15.38;7.53;;;1.40;73.00;;;;;;5092739;28;20020;-72
2024/01/27 07:22:05;;;;;;;18.00;8.55;;;1.40;72.80;;;;;;5090892;28;20118;-74
2024/01/27 07:24:32;;;;;;;17.80;10.13;;;1.50;73.10;;;;;;5074395;28;20044;-74
2024/01/27 07:27:00;;;;;;;;;;;1.50;72.90;;;;;;5091603;28;20043;-72
2024/01/27 07:29:27;;;;;;;11.45;7.63;;;1.50;72.70;;;;;;5090926;28;20318;-72
2024/01/27 07:31:53;;;;;;;18.80;11.10;;;1.60;72.50;;;;;;5091663;28;20047;-74
2024/01/27 07:34:19;;;;;;;;;;;1.60;72.20;;;;;;5074669;28;20064;-72
2024/01/27 07:36:45;;;;;;;11.18;7.10;;;1.60;73.10;;;;;;5092468;28;19920;-74
2024/01/27 07:39:12;;;;;;;16.77;12.35;;;1.70;73.10;;;;;;5073998;28;20055;-72
2024/01/27 07:41:38;;;;;;;20.92;11.43;;;1.70;73.10;;;;;;5091556;28;20454;-72
2024/01/27 07:44:22;;;;;;;16.55;10.38;;;1.70;73.20;;;;;;5090908;28;20107;-73
2024/01/27 07:46:48;;;;;;;19.33;9.52;;;1.80;73.20;;;;;;5090665;28;20036;-72
2024/01/27 07:49:15;;;;;;;23.58;11.82;;;1.80;72.80;;;;;;5091989;28;20040;-73
2024/01/27 07:51:40;;;;;;;;;;;1.90;73.10;;;;;;5092103;28;20040;-74
2024/01/27 07:54:07;;;;;;;21.92;13.40;;;2.00;73.00;;;;;;5090649;28;19923;-74
2024/01/27 07:56:33;;;;;;;14.70;9.75;;;2.10;72.80;;;;;;5090659;28;20036;-74
2024/01/27 07:58:59;;;;;;;16.13;7.47;;;2.10;75.70;;;;;;5090315;28;20032;-72
2024/01/27 08:01:25;;;;;;;6.30;4.82;;;2.00;77.40;;;;;;5073080;28;20050;-74
2024/01/27 08:03:51;;;;;;;8.68;4.43;;;2.10;78.00;;;;;;5089527;28;20028;-74
2024/01/27 08:06:28;;;;;;;6.18;3.50;;;2.20;78.30;;;;;;5089981;28;20047;-72
2024/01/27 08:08:54;;;;;;;9.57;3.85;;;2.30;77.10;;;;;;5090473;28;20081;-74
2024/01/27 08:11:20;;;;;;;8.13;4.43;;;2.50;76.70;;;;;;5069223;28;20090;-72
2024/01/27 08:13:46;;;;;;;35.70;18.52;;;2.50;76.40;;;;;;5070264;28;20033;-73
2024/01/27 08:16:13;;;;;;;;;;;2.60;77.10;;;;;;5070648;28;20040;-72
2024/01/27 08:18:42;;;;;;;10.25;8.02;;;2.80;77.00;;;;;;5070267;28;19912;-72
2024/01/27 08:21:08;;;;;;;7.05;4.60;;;2.80;76.00;;;;;;5069130;28;20105;-72
2024/01/27 08:23:35;;;;;;;8.27;4.07;;;2.90;76.00;;;;;;5077535;28;20397;-72
2024/01/27 08:26:01;;;;;;;5.40;2.83;;;3.10;75.90;;;;;;5089861;28;20036;-72
2024/01/27 08:28:27;;;;;;;5.57;2.97;;;3.10;75.70;;;;;;5089956;28;20404;-74
2024/01/27 08:30:53;;;;;;;;;;;3.20;75.40;;;;;;5073051;28;20040;-72
2024/01/27 08:33:19;;;;;;;10.85;4.00;;;3.30;75.50;;;;;;5073092;28;19918;-73
2024/01/27 08:36:05;;;;;;;6.15;3.30;;;3.40;74.90;;;;;;5091288;28;20458;-72
2024/01/27 08:38:31;;;;;;;6.18;4.25;;;3.50;73.90;;;;;;5072875;28;20036;-72
2024/01/27 08:40:57;;;;;;;5.78;3.15;;;3.60;74.10;;;;;;5089094;28;20036;-74
2024/01/27 08:43:23;;;;;;;7.47;4.43;;;3.80;74.00;;;;;;5073133;28;20404;-72
2024/01/27 08:45:49;;;;;;;8.30;3.33;;;3.90;73.60;;;;;;5089603;28;20508;-72
2024/01/27 08:48:19;;;;;;;6.45;3.05;;;4.00;73.40;;;;;;5090995;28;20153;-72
2024/01/27 08:50:45;;;;;;;5.75;3.17;;;4.10;73.00;;;;;;5090565;28;20467;-72
2024/01/27 08:53:12;;;;;;;6.93;3.67;;;4.30;72.60;;;;;;5091260;28;20028;-73
2024/01/27 08:55:38;;;;;;;5.72;3.40;;;4.50;72.30;;;;;;5091069;28;20106;-74
2024/01/27 08:58:04;;;;;;;7.13;3.63;;;4.60;71.70;;;;;;5089933;28;20074;-72
2024/01/27 09:00:30;;;;;;;6.75;3.70;;;5.30;70.50;;;;;;5090241;28;20040;-74
2024/01/27 09:02:57;;;;;;;8.48;4.80;;;6.30;67.90;;;;;;5089877;28;20032;-73
2024/01/27 09:05:23;;;;;;;7.70;5.18;;;7.90;63.90;;;;;;5089513;28;20039;-74
2024/01/27 09:07:49;;;;;;;;;;;9.20;59.80;;;;;;5090165;28;20043;-73
2024/01/27 09:10:16;;;;;;;6.07;3.30;;;9.80;58.30;;;;;;5088949;28;19916;-74
2024/01/27 09:12:43;;;;;;;5.45;3.50;;;10.60;56.20;;;;;;5089779;28;20493;-72
2024/01/27 09:15:10;;;;;;;4.90;3.17;;;11.20;53.30;;;;;;5090771;28;20044;-74
2024/01/27 09:17:36;;;;;;;;;;;12.30;51.50;;;;;;5091595;28;20039;-72
2024/01/27 09:20:03;;;;;;;4.45;3.38;;;13.40;47.60;;;;;;5092109;28;19981;-72
2024/01/27 09:22:29;;;;;;;3.78;2.22;;;13.40;47.80;;;;;;5092986;28;20418;-74
2024/01/27 09:24:55;;;;;;;;;;;12.80;50.40;;;;;;5093990;28;20358;-72
2024/01/27 09:27:21;;;;;;;3.33;1.42;;;12.90;50.90;;;;;;5092995;28;19961;-72
2024/01/27 09:29:47;;;;;;;5.15;3.58;;;13.80;49.10;;;;;;5093341;28;20093;-72
2024/01/27 09:32:13;;;;;;;5.68;2.35;;;14.00;48.50;;;;;;5092437;28;20036;-74
2024/01/27 09:34:39;;;;;;;22.08;3.78;;;14.30;46.60;;;;;;5093328;28;20480;-74
2024/01/27 09:37:05;;;;;;;7.20;5.82;;;14.40;45.20;;;;;;5094339;28;20066;-74
2024/01/27 09:39:32;;;;;;;5.40;1.67;;;14.30;45.80;;;;;;5093170;28;20032;-72
2024/01/27 09:42:01;;;;;;;;;;;14.90;45.00;;;;;;5093155;28;20040;-74
2024/01/27 09:44:28;;;;;;;4.60;2.33;;;15.60;41.60;;;;;;5067438;28;20331;-73
2024/01/27 09:46:55;;;;;;;3.42;1.88;;;15.90;41.40;;;;;;5071983;28;20450;-72
2024/01/27 09:49:21;;;;;;;3.78;2.20;;;15.80;38.70;;;;;;5056137;28;20382;-73
2024/01/27 09:51:48;;;;;;;6.90;3.13;;;15.20;39.90;;;;;;5071952;28;20055;-72
2024/01/27 09:54:15;;;;;;;2.75;1.52;;;14.90;41.80;;;;;;5073997;28;20054;-74
2024/01/27 09:56:41;;;;;;;;;;;14.90;42.40;;;;;;5056582;28;20059;-72
2024/01/27 09:59:08;;;;;;;3.33;1.23;;;14.70;38.90;;;;;;5089454;28;19924;-72
2024/01/27 10:01:36;;;;;;;2.45;0.77;;;14.50;38.10;;;;;;5079391;28;20032;-73
2024/01/27 10:04:02;;;;;;;3.03;1.23;;;14.00;39.50;;;;;;5055629;28;20020;-72
2024/01/27 10:06:28;;;;;;;2.47;2.13;;;14.00;37.40;;;;;;5072238;28;20089;-72
2024/01/27 10:08:55;;;;;;;0.98;0.70;;;14.00;38.80;;;;;;5072474;28;20060;-73
2024/01/27 10:11:23;;;;;;;1.77;0.68;;;13.70;38.90;;;;;;5073193;28;20128;-72
2024/01/27 10:14:00;;;;;;;2.30;1.17;;;13.60;38.40;;;;;;5055639;28;20505;-73
2024/01/27 10:16:28;;;;;;;4.60;2.40;;;13.70;37.80;;;;;;5072344;28;20028;-74
2024/01/27 10:19:31;;;;;;;2.15;1.30;;;13.70;38.00;;;;;;5065688;28;20046;-72
2024/01/27 10:22:16;;;;;;;1.92;0.70;;;14.50;37.60;;;;;;5091746;28;20056;-73
2024/01/27 10:24:42;;;;;;;0.82;0.73;;;16.80;32.60;;;;;;5092300;28;20480;-72
2024/01/27 10:27:10;;;;;;;3.17;2.05;;;16.50;31.30;;;;;;5092036;28;20423;-72
2024/01/27 10:29:36;;;;;;;2.78;1.77;;;16.70;32.40;;;;;;5092508;28;20485;-72
2024/01/27 10:35:08;;;;;;;1.05;0.77;;;17.10;32.10;;;;;;5092162;28;20093;-74
2024/01/27 10:37:35;;;;;;;0.43;0.38;;;16.60;30.80;;;;;;5093509;28;20058;-74
2024/01/27 10:40:20;;;;;;;1.13;0.90;;;16.40;32.70;;;;;;5093015;28;20032;-74
2024/01/27 10:42:47;;;;;;;2.53;1.23;;;16.40;30.20;;;;;;5091824;28;20036;-72
2024/01/27 10:45:14;;;;;;;2.25;1.27;;;15.70;31.70;;;;;;5091800;28;20093;-72
2024/01/27 10:47:42;;;;;;;1.98;1.45;;;15.90;31.50;;;;;;5091609;28;20065;-73
2024/01/27 10:50:09;;;;;;;2.30;1.80;;;15.70;30.10;;;;;;5073921;28;20036;-74
2024/01/27 10:52:41;;;;;;;1.17;0.68;;;15.30;32.30;;;;;;5091098;28;20116;-74
2024/01/27 10:55:10;;;;;;;1.58;0.90;;;15.50;31.50;;;;;;5075040;28;20071;-74
2024/01/27 10:57:37;;;;;;;0.50;0.47;;;15.40;31.80;;;;;;5093080;28;20055;-74
2024/01/27 11:00:06;;;;;;;0.63;0.32;;;15.50;30.80;;;;;;5092283;28;20046;-72
2024/01/27 11:02:34;;;;;;;1.35;0.55;;;15.40;32.20;;;;;;5091660;28;20053;-72
2024/01/27 11:05:14;;;;;;;0.60;0.52;;;16.30;31.20;;;;;;5090078;28;20032;-72
2024/01/27 11:07:42;;;;;;;1.77;0.57;;;16.00;29.50;;;;;;5091420;28;20059;-73
2024/01/27 11:10:09;;;;;;;6.28;1.27;;;14.80;31.00;;;;;;5090544;28;20507;-73
2024/01/27 11:12:35;;;;;;;0.32;0.32;;;14.90;32.30;;;;;;5092832;28;20028;-72
2024/01/27 11:15:02;;;;;;;0.30;0.30;;;15.10;31.40;;;;;;5092511;28;20044;-72
2024/01/27 11:17:28;;;;;;;0.52;0.35;;;15.20;30.90;;;;;;5091119;28;20036;-74
2024/01/27 11:19:59;;;;;;;0.43;0.40;;;15.50;31.00;;;;;;5091145;28;20040;-74
2024/01/27 11:22:44;;;;;;;4.28;1.30;;;16.50;29.50;;;;;;5091998;28;20056;-74
2024/01/27 11:25:28;;;;;;;0.20;0.20;;;17.20;29.20;;;;;;5090896;28;20036;-74
2024/01/27 11:27:54;;;;;;;0.35;0.35;;;18.40;26.70;;;;;;5090811;28;20401;-72
2024/01/27 11:30:39;;;;;;;1.13;1.02;;;19.70;25.20;;;;;;5091903;28;20044;-74
2024/01/27 11:33:06;;;;;;;0.50;0.50;;;21.30;23.90;;;;;;5090844;28;20431;-72
2024/01/27 11:35:32;;;;;;;0.90;0.43;;;20.90;22.80;;;;;;5074022;28;20077;-74
2024/01/27 11:37:58;;;;;;;0.50;0.40;;;19.50;24.80;;;;;;5091123;28;20347;-74
2024/01/27 11:40:24;;;;;;;0.25;0.25;;;18.60;26.50;;;;;;5071863;28;20036;-74
2024/01/27 11:43:14;;;;;;;0.47;0.40;;;18.50;26.90;;;;;;5073238;28;20501;-74
2024/01/27 11:45:40;;;;;;;0.57;0.30;;;17.70;27.20;;;;;;5091746;28;20542;-72
2024/01/27 11:48:06;;;;;;;1.58;1.13;;;17.80;28.50;;;;;;5090529;28;20074;-74
2024/01/27 11:50:32;;;;;;;0.38;0.30;;;17.80;27.40;;;;;;5091768;28;20056;-73
2024/01/27 11:52:58;;;;;;;2.80;0.85;;;18.40;26.60;;;;;;5090568;28;20031;-72
2024/01/27 11:55:24;;;;;;;1.23;0.40;;;17.90;26.80;;;;;;5090607;28;20044;-72
2024/01/27 11:57:51;;;;;;;1.13;0.50;;;18.00;27.50;;;;;;5090587;28;20093;-73
2024/01/27 12:00:17;;;;;;;2.00;0.77;;;18.60;25.80;;;;;;5089537;28;20302;-72
2024/01/27 12:02:43;;;;;;;1.10;0.77;;;18.60;25.70;;;;;;5091832;28;20035;-72
2024/01/27 12:05:10;;;;;;;0.30;0.30;;;18.80;25.80;;;;;;5090210;28;20040;-72
2024/01/27 12:07:36;;;;;;;0.30;0.30;;;18.80;26.20;;;;;;5091613;28;20582;-74
2024/01/27 12:10:03;;;;;;;0.57;0.43;;;17.80;26.00;;;;;;5089707;28;20088;-72
2024/01/27 12:12:29;;;;;;;1.92;1.77;;;16.90;28.60;;;;;;5073371;28;20435;-74
2024/01/27 12:14:55;;;;;;;0.95;0.73;;;16.90;28.50;;;;;;5091631;28;20044;-74
2024/01/27 12:17:22;;;;;;;;;;;17.10;28.40;;;;;;5091852;28;20036;-72
2024/01/27 12:20:16;;;;;;;0.50;0.32;;;17.10;28.10;;;;;;5090681;28;20253;-74
2024/01/27 12:22:42;;;;;;;0.63;0.60;;;17.20;27.00;;;;;;5090257;28;20522;-74
2024/01/27 12:25:12;;;;;;;0.10;0.10;;;16.50;28.90;;;;;;5091308;28;20040;-75
2024/01/27 12:27:40;;;;;;;0.88;0.70;;;16.00;29.60;;;;;;5073369;28;20123;-72
2024/01/27 12:30:08;;;;;;;0.10;0.10;;;16.30;30.00;;;;;;5089397;28;20078;-74
2024/01/27 12:32:34;;;;;;;1.52;1.00;;;16.50;29.20;;;;;;5073338;28;20411;-73
2024/01/27 12:35:06;;;;;;;0.10;0.10;;;16.30;28.90;;;;;;5090951;28;20064;-73
2024/01/27 12:37:32;;;;;;;0.73;0.63;;;16.00;29.10;;;;;;5069320;28;20036;-72
2024/01/27 12:39:58;;;;;;;3.10;1.90;;;16.60;27.90;;;;;;5087174;28;20044;-72
2024/01/27 12:42:24;;;;;;;1.15;0.57;;;17.00;27.20;;;;;;5089380;28;20040;-72
2024/01/27 12:44:50;;;;;;;0.85;0.40;;;17.20;27.10;;;;;;5089811;28;20381;-72
2024/01/27 12:47:16;;;;;;;0.20;0.20;;;16.70;26.50;;;;;;5089566;28;20085;-74
2024/01/27 12:49:42;;;;;;;;;;;16.70;28.10;;;;;;5090590;28;20028;-73
2024/01/27 12:52:08;;;;;;;0.98;0.65;;;17.20;27.80;;;;;;5090253;28;20011;-74
2024/01/27 12:54:34;;;;;;;0.35;0.20;;;17.30;27.40;;;;;;5093863;28;20032;-72
2024/01/27 12:57:01;;;;;;;0.85;0.52;;;18.40;27.00;;;;;;5076999;28;20024;-72
2024/01/27 12:59:28;;;;;;;0.40;0.30;;;18.20;26.30;;;;;;5093729;28;20028;-73
2024/01/27 13:01:54;;;;;;;0.68;0.68;;;18.00;25.90;;;;;;5093221;28;20040;-73